NFNL METAR and TAF | Updated Today

NFNL METAR

Labasa Airport

Observation time: 41 min. ago

NFNL 291100Z AUTO VRB01KT //// ////// 24/23 Q1013

Need help? Read our tutorial on how to read METARs or read the parsed version below.

Labasa Airport (NFNL) METAR

  • Weather conditions on Sun, 29 May 2022 11:00:00 +0000 (41 min. ago):
  • Present conditions: Dry
  • Clouds: Clear skies
  • Visibility:
  • Wind: Variable at 1 knots
  • Temperature: 24 celsius
  • Dew point: 23 celsius
  • Pressure: 1013 millibars
  • Remarks: None


Useful to know...

NFNL TAF

Labasa Airport

TAF not found.

Airports near NFNL

No airports found within 100nm radius.